Time;durP1;ratioP1;P1;durP2;ratioP2;P2;SDS_P1;SDS_P2;PMS_P1;PMS_P2;Temp;Humidity;BMP_temperature;BMP_pressure;BME280_temperature;BME280_humidity;BME280_pressure;Samples;Min_cycle;Max_cycle;Signal;HPM_P1;HPM_P2
2022/02/20 00:01:23;;;;;;;4.42;1.42;;;;;;;5.09;48.73;97899.28;1685157;85;20985;-79
2022/02/20 00:03:49;;;;;;;5.20;1.15;;;;;;;5.12;47.91;97901.01;1684881;85;21463;-79
2022/02/20 00:06:17;;;;;;;2.58;1.10;;;;;;;5.14;47.89;97892.66;1684884;85;20977;-79
2022/02/20 00:08:43;;;;;;;3.47;1.60;;;;;;;5.16;48.08;97893.53;1685006;85;21029;-79
2022/02/20 00:11:10;;;;;;;5.05;1.30;;;;;;;5.18;48.25;97885.64;1684937;85;21001;-79
2022/02/20 00:13:36;;;;;;;4.62;1.40;;;;;;;5.18;47.24;97886.49;1692947;83;21493;-79
2022/02/20 00:16:06;;;;;;;1.70;0.90;;;;;;;5.20;47.62;97883.42;1719134;82;21060;-79
2022/02/20 00:18:32;;;;;;;3.90;1.05;;;;;;;5.22;47.15;97880.33;1719665;82;21119;-79
2022/02/20 00:20:59;;;;;;;4.05;1.00;;;;;;;5.25;46.33;97880.73;1719195;82;20994;-79
2022/02/20 00:23:26;;;;;;;2.47;1.10;;;;;;;5.27;46.38;97889.46;1718755;83;21028;-79
2022/02/20 00:25:52;;;;;;;3.30;0.98;;;;;;;5.27;45.63;97894.28;1718919;83;21080;-80
2022/02/20 00:28:19;;;;;;;2.12;0.82;;;;;;;5.32;45.71;97889.00;1719194;83;21001;-80
2022/02/20 00:30:46;;;;;;;4.03;1.05;;;;;;;5.34;45.69;97886.34;1718954;82;21174;-79
2022/02/20 00:33:13;;;;;;;3.22;1.17;;;;;;;5.36;45.56;97884.58;1719200;82;21093;-80
2022/02/20 00:35:40;;;;;;;2.58;1.10;;;;;;;5.38;44.71;97889.36;1719112;83;21443;-80
2022/02/20 00:38:10;;;;;;;2.30;0.90;;;;;;;5.39;45.15;97875.33;1718868;83;21604;-79
2022/02/20 00:40:38;;;;;;;2.65;1.00;;;;;;;5.40;45.60;97875.31;1719345;83;21064;-80
2022/02/20 00:43:05;;;;;;;1.55;0.75;;;;;;;5.38;45.55;97873.16;1719533;83;21021;-79
2022/02/20 00:45:32;;;;;;;4.12;1.20;;;;;;;5.36;45.59;97865.72;1719326;83;21533;-79
2022/02/20 00:47:59;;;;;;;2.55;1.20;;;;;;;5.34;45.55;97872.77;1719133;82;21056;-79
2022/02/20 00:50:27;;;;;;;2.90;0.93;;;;;;;5.32;46.50;97859.22;1685483;83;21517;-80
2022/02/20 00:52:55;;;;;;;4.15;1.32;;;;;;;5.24;46.86;97858.83;1694282;83;21029;-79
2022/02/20 00:55:21;;;;;;;5.67;1.45;;;;;;;5.16;47.17;97862.00;1699098;83;21056;-79
2022/02/20 00:57:48;;;;;;;3.20;1.22;;;;;;;5.12;47.36;97861.60;1685835;83;21088;-79
2022/02/20 01:00:15;;;;;;;2.05;1.22;;;;;;;5.07;47.88;97864.25;1685559;83;21020;-79
2022/02/20 01:02:42;;;;;;;2.05;1.30;;;;;;;5.04;48.33;97860.36;1685814;83;21013;-79
2022/02/20 01:05:11;;;;;;;5.12;1.70;;;;;;;4.99;48.11;97861.70;1685698;83;21052;-79
2022/02/20 01:07:39;;;;;;;3.62;1.40;;;;;;;4.96;48.20;97865.69;1691666;83;21018;-79
2022/02/20 01:10:10;;;;;;;3.12;1.65;;;;;;;4.93;48.33;97864.82;1707558;82;21449;-79
2022/02/20 01:12:37;;;;;;;3.80;1.22;;;;;;;4.89;48.62;97869.23;1693686;83;21036;-79
2022/02/20 01:15:06;;;;;;;5.00;2.10;;;;;;;4.86;48.70;97887.67;1687362;82;20993;-79
2022/02/20 01:17:33;;;;;;;4.55;2.10;;;;;;;4.80;48.85;97879.81;1685755;83;21000;-79
2022/02/20 01:19:59;;;;;;;3.65;1.70;;;;;;;4.74;49.03;97878.98;1685314;83;21013;-79
2022/02/20 01:22:28;;;;;;;4.08;1.57;;;;;;;4.73;49.09;97871.12;1692497;83;20993;-79
2022/02/20 01:24:55;;;;;;;6.08;1.60;;;;;;;4.68;49.18;97859.78;1688915;83;20993;-79
2022/02/20 01:27:23;;;;;;;3.72;1.35;;;;;;;4.64;49.43;97859.41;1695175;82;21060;-79
2022/02/20 01:29:49;;;;;;;4.97;1.70;;;;;;;4.58;50.09;97861.63;1685701;83;21036;-80
2022/02/20 01:32:18;;;;;;;4.03;1.82;;;;;;;4.54;50.11;97861.21;1685807;83;20988;-79
2022/02/20 01:34:44;;;;;;;5.95;1.87;;;;;;;4.47;50.86;97852.51;1685599;83;21046;-79
2022/02/20 01:37:11;;;;;;;3.33;1.90;;;;;;;4.41;50.81;97860.00;1685925;83;21053;-79
2022/02/20 01:39:37;;;;;;;4.00;1.70;;;;;;;4.38;50.70;97856.50;1685515;83;21454;-79
2022/02/20 01:42:06;;;;;;;3.95;1.70;;;;;;;4.35;51.02;97850.41;1718886;83;20997;-79
2022/02/20 01:44:34;;;;;;;5.80;1.72;;;;;;;4.31;51.14;97859.18;1717912;82;20977;-79
2022/02/20 01:47:05;;;;;;;6.95;2.20;;;;;;;4.26;51.48;97854.41;1717940;83;21013;-79
2022/02/20 01:49:34;;;;;;;5.10;1.60;;;;;;;4.23;51.42;97851.79;1718796;83;21494;-79
2022/02/20 01:52:00;;;;;;;5.90;1.57;;;;;;;4.17;52.09;97847.91;1730957;83;21024;-80
2022/02/20 01:54:28;;;;;;;3.87;1.40;;;;;;;4.13;51.62;97848.80;1731035;83;21036;-79
2022/02/20 01:56:56;;;;;;;4.83;1.37;;;;;;;4.09;51.65;97836.15;1732414;81;20967;-79
2022/02/20 01:59:30;;;;;;;3.70;1.30;;;;;;;4.07;51.50;97831.37;1716230;82;21005;-79
2022/02/20 02:02:19;;;;;;;4.33;1.47;;;;;;;4.05;51.65;97832.69;1696380;83;21052;-78
2022/02/20 02:04:44;;;;;;;5.67;1.90;;;;;;;4.02;51.46;97830.52;1707518;82;21027;-77
2022/02/20 02:07:11;;;;;;;4.10;1.55;;;;;;;3.99;51.67;97822.66;1698663;83;21510;-77
2022/02/20 02:09:42;;;;;;;5.70;1.52;;;;;;;3.93;51.77;97820.52;1716619;83;21025;-78
2022/02/20 02:12:27;;;;;;;4.55;1.37;;;;;;;3.90;51.47;97823.59;1730628;83;21035;-78
2022/02/20 02:15:04;;;;;;;4.60;1.67;;;;;;;3.87;51.50;97831.05;1695302;82;20996;-78
2022/02/20 02:17:38;;;;;;;3.75;1.40;;;;;;;3.82;51.96;97825.80;1698522;83;21096;-78
2022/02/20 02:20:12;;;;;;;4.90;1.42;;;;;;;3.79;52.06;97823.19;1724355;83;21446;-78
2022/02/20 02:22:57;;;;;;;2.58;1.15;;;;;;;3.73;51.95;97819.30;1728528;83;21414;-77
2022/02/20 02:25:29;;;;;;;2.58;1.12;;;;;;;3.62;52.14;97817.17;1705514;82;21055;-78
2022/02/20 02:28:04;;;;;;;4.72;1.45;;;;;;;3.55;52.40;97805.42;1697726;83;21092;-77
2022/02/20 02:30:39;;;;;;;8.03;2.10;;;;;;;3.50;52.21;97812.85;1707022;83;21084;-77
2022/02/20 02:33:07;;;;;;;4.65;1.42;;;;;;;3.42;52.28;97811.58;1698014;83;21065;-78
2022/02/20 02:35:34;;;;;;;3.30;1.20;;;;;;;3.34;52.42;97815.96;1698176;84;21016;-78
2022/02/20 02:38:00;;;;;;;3.67;1.10;;;;;;;3.20;52.76;97821.25;1707831;82;21434;-78
2022/02/20 02:40:28;;;;;;;3.37;1.12;;;;;;;3.11;52.93;97819.54;1703039;83;21043;-78
2022/02/20 02:42:55;;;;;;;2.02;1.07;;;;;;;3.04;52.93;97812.98;1701119;83;21008;-78
2022/02/20 02:45:27;;;;;;;5.28;1.50;;;;;;;2.97;53.06;97807.34;1701331;83;21039;-79
2022/02/20 02:47:54;;;;;;;3.00;1.40;;;;;;;2.88;53.13;97816.09;1698625;83;21060;-79
2022/02/20 02:50:21;;;;;;;1.82;1.20;;;;;;;2.81;53.28;97810.41;1698313;83;21461;-79
2022/02/20 02:52:49;;;;;;;28.42;12.82;;;;;;;2.74;53.50;97816.09;1698433;83;21367;-79
2022/02/20 02:55:17;;;;;;;3.85;1.20;;;;;;;2.64;53.42;97816.98;1722227;82;21417;-79
2022/02/20 02:57:44;;;;;;;3.70;1.25;;;;;;;2.59;53.51;97832.69;1750987;82;20993;-79
2022/02/20 03:00:11;;;;;;;3.02;1.00;;;;;;;2.53;53.63;97824.81;1738589;82;21351;-78
2022/02/20 03:02:39;;;;;;;4.33;1.37;;;;;;;2.48;53.77;97820.91;1732473;82;21002;-78
2022/02/20 03:05:07;;;;;;;7.42;1.50;;;;;;;2.45;53.75;97824.82;1743023;82;21024;-78
2022/02/20 03:07:34;;;;;;;4.92;1.45;;;;;;;2.40;53.82;97823.95;1752820;82;21000;-79
2022/02/20 03:10:01;;;;;;;5.50;1.17;;;;;;;2.33;53.98;97820.91;1752682;82;21067;-78
2022/02/20 03:12:28;;;;;;;3.87;1.17;;;;;;;2.29;54.07;97824.39;1752458;81;21493;-78
2022/02/20 03:14:55;;;;;;;3.77;1.50;;;;;;;2.24;54.11;97820.02;1743525;82;20963;-78
2022/02/20 03:17:22;;;;;;;7.35;1.72;;;;;;;2.24;54.23;97812.59;1732420;83;21054;-79
2022/02/20 03:19:49;;;;;;;4.58;1.47;;;;;;;2.23;54.36;97820.02;1732394;83;21420;-78
2022/02/20 03:22:16;;;;;;;7.62;1.60;;;;;;;2.21;54.56;97810.85;1715800;83;21346;-79
2022/02/20 03:24:43;;;;;;;4.85;1.65;;;;;;;2.20;54.70;97813.03;1739390;82;21016;-79
2022/02/20 03:27:10;;;;;;;3.35;2.02;;;;;;;2.22;54.88;97816.97;1752598;82;21018;-79
2022/02/20 03:29:37;;;;;;;6.03;1.42;;;;;;;2.19;55.09;97817.84;1752588;82;21008;-79
2022/02/20 03:32:07;;;;;;;3.62;1.67;;;;;;;2.19;55.34;97812.61;1752656;82;20972;-79
2022/02/20 03:34:35;;;;;;;7.62;1.95;;;;;;;2.17;55.16;97814.36;1747003;82;21002;-78
2022/02/20 03:37:03;;;;;;;4.65;1.90;;;;;;;2.13;55.40;97802.58;1732405;83;21030;-79
2022/02/20 03:39:34;;;;;;;4.47;1.70;;;;;;;2.09;55.35;97796.05;1731500;82;21333;-79
2022/02/20 03:42:02;;;;;;;5.05;2.17;;;;;;;2.07;55.90;97792.55;1732097;82;21451;-79
2022/02/20 03:44:31;;;;;;;2.90;1.80;;;;;;;2.03;55.83;97794.72;1735250;82;21087;-79
2022/02/20 03:46:59;;;;;;;4.17;2.02;;;;;;;1.99;55.99;97799.50;1750445;82;21052;-78
2022/02/20 03:49:26;;;;;;;6.22;2.00;;;;;;;1.96;56.34;97802.98;1752524;82;21007;-78
2022/02/20 03:51:55;;;;;;;4.95;2.10;;;;;;;1.94;56.72;97807.34;1745226;82;21020;-78
2022/02/20 03:54:23;;;;;;;6.08;1.90;;;;;;;1.90;56.70;97805.59;1721958;82;21397;-79
2022/02/20 03:56:50;;;;;;;4.70;2.02;;;;;;;1.84;56.59;97799.05;1719641;83;21019;-79
2022/02/20 03:59:21;;;;;;;8.65;1.67;;;;;;;1.83;56.48;97793.39;1717930;83;21018;-79
2022/02/20 04:01:49;;;;;;;4.47;2.30;;;;;;;1.78;57.38;97790.75;1709131;83;21019;-79
2022/02/20 04:04:15;;;;;;;3.50;1.85;;;;;;;1.79;56.67;97785.95;1739443;82;21004;-78
2022/02/20 04:06:42;;;;;;;4.97;2.15;;;;;;;1.81;56.60;97780.73;1725507;82;21028;-79
2022/02/20 04:09:11;;;;;;;8.00;1.98;;;;;;;1.78;56.66;97777.69;1744184;82;20980;-78
2022/02/20 04:11:37;;;;;;;3.60;1.65;;;;;;;1.78;56.73;97769.00;1744278;82;21079;-78
2022/02/20 04:14:06;;;;;;;3.30;1.25;;;;;;;1.77;56.66;97773.34;1725531;82;21026;-78
2022/02/20 04:16:34;;;;;;;3.72;1.57;;;;;;;1.75;56.88;97779.43;1718802;83;21035;-78
2022/02/20 04:19:01;;;;;;;3.37;1.75;;;;;;;1.72;56.70;97775.06;1719511;82;21034;-79
2022/02/20 04:21:28;;;;;;;5.03;1.67;;;;;;;1.73;56.84;97778.11;1719359;82;20979;-78
2022/02/20 04:23:59;;;;;;;4.12;1.67;;;;;;;1.70;56.96;97775.06;1735714;82;21059;-78
2022/02/20 04:26:26;;;;;;;4.97;1.70;;;;;;;1.67;57.16;97759.36;1744376;82;21787;-78
2022/02/20 04:28:53;;;;;;;6.47;1.90;;;;;;;1.67;57.33;97764.59;1744223;82;20997;-78
2022/02/20 04:31:20;;;;;;;3.85;1.92;;;;;;;1.61;57.37;97767.19;1744355;82;21005;-78
2022/02/20 04:33:49;;;;;;;9.85;2.05;;;;;;;1.57;57.62;97748.04;1740229;82;20993;-78
2022/02/20 04:36:16;;;;;;;5.50;1.95;;;;;;;1.55;58.02;97751.52;1744377;82;21039;-78
2022/02/20 04:38:44;;;;;;;5.45;2.27;;;;;;;1.52;57.69;97746.27;1743961;82;21474;-77
2022/02/20 04:41:12;;;;;;;5.17;2.10;;;;;;;1.45;59.38;97743.65;1744341;82;21375;-78
2022/02/20 04:43:40;;;;;;;4.67;2.00;;;;;;;1.40;59.02;97740.58;1741408;82;21040;-78
2022/02/20 04:46:08;;;;;;;6.83;1.82;;;;;;;1.39;58.37;97746.67;1744320;82;20985;-78
2022/02/20 04:48:35;;;;;;;6.25;2.42;;;;;;;1.40;58.33;97744.49;1744317;82;21406;-79
2022/02/20 04:51:04;;;;;;;9.18;2.33;;;;;;;1.40;58.64;97750.59;1744159;82;21485;-79
2022/02/20 04:53:30;;;;;;;4.45;2.20;;;;;;;1.39;59.10;97756.70;1737530;82;20975;-79
2022/02/20 04:55:59;;;;;;;9.48;2.10;;;;;;;1.36;58.82;97759.28;1730517;82;21009;-79
2022/02/20 04:58:28;;;;;;;15.38;2.20;;;;;;;1.34;58.78;97757.12;1719828;82;21071;-78
2022/02/20 05:00:55;;;;;;;9.50;2.40;;;;;;;1.37;58.79;97745.81;1719578;82;21424;-78
2022/02/20 05:03:25;;;;;;;7.12;2.77;;;;;;;1.36;58.83;97757.98;1725098;82;20974;-78
2022/02/20 05:06:09;;;;;;;6.60;3.10;;;;;;;1.39;59.09;97754.09;1744556;82;21013;-78
2022/02/20 05:08:50;;;;;;;6.40;2.83;;;;;;;1.35;59.81;97751.44;1744525;82;21421;-78
2022/02/20 05:11:24;;;;;;;6.37;3.30;;;;;;;1.35;59.49;97764.50;1743067;82;21501;-78
2022/02/20 05:13:54;;;;;;;7.47;3.10;;;;;;;1.32;59.81;97757.52;1734344;82;21507;-78
2022/02/20 05:16:23;;;;;;;8.48;3.83;;;;;;;1.33;59.33;97767.55;1719609;83;21015;-78
2022/02/20 05:18:51;;;;;;;8.25;3.75;;;;;;;1.35;59.64;97770.60;1719467;82;21062;-78
2022/02/20 05:21:18;;;;;;;6.72;3.40;;;;;;;1.27;59.69;97777.52;1719678;82;21476;-78
2022/02/20 05:23:46;;;;;;;9.90;3.92;;;;;;;1.25;59.63;97774.05;1728258;82;21052;-78
2022/02/20 05:26:13;;;;;;;7.80;3.72;;;;;;;1.25;60.24;97768.83;1744286;82;20965;-78
2022/02/20 05:28:40;;;;;;;7.97;3.80;;;;;;;1.23;59.62;97771.42;1744542;82;20997;-78
2022/02/20 05:31:09;;;;;;;8.65;3.80;;;;;;;1.24;59.72;97773.16;1744036;82;21431;-77
2022/02/20 05:33:36;;;;;;;6.78;3.77;;;;;;;1.24;59.53;97778.38;1720276;82;21018;-78
2022/02/20 05:36:03;;;;;;;7.65;3.77;;;;;;;1.28;59.47;97777.95;1719635;83;21054;-78
2022/02/20 05:38:34;;;;;;;10.95;4.10;;;;;;;1.28;59.46;97780.14;1718980;83;21030;-78
2022/02/20 05:41:01;;;;;;;10.60;4.33;;;;;;;1.27;59.67;97782.75;1718870;82;21410;-78
2022/02/20 05:43:30;;;;;;;10.72;4.62;;;;;;;1.22;61.15;97774.02;1682974;85;21036;-78
2022/02/20 05:45:56;;;;;;;9.70;3.90;;;;;;;1.18;60.08;97778.36;1743766;82;21286;-77
2022/02/20 05:48:25;;;;;;;9.55;3.45;;;;;;;1.21;60.07;97778.81;1743931;82;21000;-77
2022/02/20 05:50:56;;;;;;;10.40;4.20;;;;;;;1.21;59.98;97778.39;1740519;82;21019;-77
2022/02/20 05:53:23;;;;;;;12.30;3.75;;;;;;;1.23;59.97;97778.38;1735310;82;20978;-77
2022/02/20 05:55:50;;;;;;;9.38;3.92;;;;;;;1.23;60.00;97789.70;1732456;82;20990;-77
2022/02/20 05:58:17;;;;;;;8.83;4.28;;;;;;;1.25;60.21;97789.72;1732581;82;20970;-77
2022/02/20 06:00:48;;;;;;;11.80;3.83;;;;;;;1.26;60.36;97788.42;1741288;82;21016;-77
2022/02/20 06:03:16;;;;;;;9.15;4.30;;;;;;;1.27;60.31;97791.88;1752723;81;21028;-77
2022/02/20 06:05:44;;;;;;;10.68;4.47;;;;;;;1.31;60.34;97787.12;1750085;82;21445;-77
2022/02/20 06:08:28;;;;;;;10.00;4.20;;;;;;;1.30;60.80;97788.84;1729056;82;20986;-77
2022/02/20 06:10:57;;;;;;;14.73;4.58;;;;;;;1.24;61.15;97784.91;1732156;82;21046;-77
2022/02/20 06:13:25;;;;;;;10.18;4.12;;;;;;;1.24;61.33;97790.58;1730150;82;20970;-77
2022/02/20 06:16:10;;;;;;;9.38;4.25;;;;;;;1.17;61.54;97780.09;1732436;83;21496;-77
2022/02/20 06:18:42;;;;;;;9.35;4.30;;;;;;;1.21;60.76;97786.22;1725028;82;21466;-77
2022/02/20 06:21:22;;;;;;;11.25;4.28;;;;;;;1.28;60.77;97784.48;1739394;82;21455;-77
2022/02/20 06:23:50;;;;;;;11.48;3.80;;;;;;;1.33;60.66;97788.44;1731061;82;21053;-78
2022/02/20 06:26:35;;;;;;;10.08;4.00;;;;;;;1.38;60.51;97786.30;1732325;83;21432;-78
2022/02/20 06:29:04;;;;;;;10.35;4.60;;;;;;;1.47;60.55;97789.78;1740387;82;21036;-78
2022/02/20 06:31:30;;;;;;;10.28;4.78;;;;;;;1.52;60.55;97790.25;1752917;81;21020;-78
2022/02/20 06:33:57;;;;;;;12.85;5.33;;;;;;;1.58;60.39;97798.55;1752784;82;21028;-78
2022/02/20 06:36:24;;;;;;;11.20;5.47;;;;;;;1.65;60.31;97796.38;1752500;82;21398;-78
2022/02/20 06:38:52;;;;;;;8.58;4.95;;;;;;;1.69;60.40;97798.56;1746176;82;21078;-78
2022/02/20 06:41:19;;;;;;;13.10;5.85;;;;;;;1.75;60.19;97794.69;1732526;83;21041;-78
2022/02/20 06:43:47;;;;;;;12.95;5.72;;;;;;;1.79;59.95;97810.78;1732084;82;21025;-78
2022/02/20 06:46:21;;;;;;;12.07;5.65;;;;;;;1.80;59.82;97809.94;1737280;82;21039;-78
2022/02/20 06:48:52;;;;;;;11.73;5.47;;;;;;;1.83;59.77;97814.30;1750798;82;21430;-78
2022/02/20 06:51:35;;;;;;;15.25;6.37;;;;;;;1.89;59.77;97802.97;1719843;82;21060;-78
2022/02/20 06:54:20;;;;;;;15.25;5.83;;;;;;;1.97;59.80;97815.20;1752640;82;21048;-79
2022/02/20 06:56:48;;;;;;;10.35;5.05;;;;;;;2.04;59.77;97821.74;1740630;82;21053;-79
2022/02/20 06:59:15;;;;;;;14.73;6.03;;;;;;;2.14;59.62;97825.23;1744090;82;21382;-79
2022/02/20 07:01:41;;;;;;;11.10;5.35;;;;;;;2.21;59.48;97821.31;1752836;82;21036;-79
2022/02/20 07:04:09;;;;;;;12.50;5.37;;;;;;;2.28;59.34;97826.12;1752580;82;21486;-79
2022/02/20 07:06:36;;;;;;;10.90;5.35;;;;;;;2.33;58.94;97825.69;1751343;82;21426;-79
2022/02/20 07:09:02;;;;;;;10.60;5.75;;;;;;;2.36;58.29;97824.81;1752665;82;21034;-79
2022/02/20 07:11:29;;;;;;;11.33;5.83;;;;;;;2.42;58.35;97820.03;1752659;82;21055;-79
2022/02/20 07:13:56;;;;;;;10.65;5.72;;;;;;;2.44;58.26;97827.00;1752426;82;20960;-79
2022/02/20 07:16:22;;;;;;;10.93;5.40;;;;;;;2.52;58.39;97819.61;1736879;82;20980;-80
2022/02/20 07:18:49;;;;;;;11.65;5.20;;;;;;;2.60;58.23;97829.20;1752539;82;21016;-79
2022/02/20 07:21:15;;;;;;;12.33;5.90;;;;;;;2.68;58.02;97827.88;1752766;82;20980;-79
2022/02/20 07:23:42;;;;;;;10.40;5.03;;;;;;;2.72;57.87;97833.55;1752671;82;21035;-79
2022/02/20 07:26:08;;;;;;;11.20;5.90;;;;;;;2.79;57.77;97829.19;1734209;81;20995;-79
2022/02/20 07:28:35;;;;;;;13.32;5.45;;;;;;;2.85;57.44;97824.36;1732553;83;20994;-79
2022/02/20 07:31:02;;;;;;;14.28;4.58;;;;;;;2.92;57.39;97834.39;1732307;82;21100;-79
2022/02/20 07:33:28;;;;;;;8.18;4.15;;;;;;;2.92;54.59;97827.84;1732494;82;21029;-79
2022/02/20 07:35:55;;;;;;;9.85;4.40;;;;;;;2.94;55.75;97831.36;1748638;82;21072;-79
2022/02/20 07:38:21;;;;;;;10.00;4.08;;;;;;;2.95;55.17;97827.40;1752716;82;21080;-78
2022/02/20 07:40:48;;;;;;;12.35;5.58;;;;;;;2.98;54.78;97831.75;1752658;81;21063;-79
2022/02/20 07:43:14;;;;;;;13.05;5.92;;;;;;;3.03;53.99;97831.31;1752808;82;21395;-79
2022/02/20 07:45:41;;;;;;;11.78;6.45;;;;;;;3.03;53.85;97832.62;1751076;81;21016;-79
2022/02/20 07:48:07;;;;;;;15.20;7.42;;;;;;;3.08;54.32;97828.28;1752922;82;20999;-79
2022/02/20 07:50:37;;;;;;;19.35;7.80;;;;;;;3.12;54.23;97824.75;1752692;82;21051;-79
2022/02/20 07:53:06;;;;;;;19.42;8.55;;;;;;;3.19;54.84;97820.83;1752456;82;21020;-80
2022/02/20 07:55:33;;;;;;;16.65;8.40;;;;;;;3.25;55.01;97828.23;1740982;81;21057;-79
2022/02/20 07:58:07;;;;;;;30.15;15.28;;;;;;;3.30;54.74;97828.20;1732541;82;21471;-79
2022/02/20 08:00:34;;;;;;;21.30;10.58;;;;;;;3.33;55.12;97822.97;1736669;82;21002;-79
2022/02/20 08:03:08;;;;;;;21.97;8.98;;;;;;;3.39;55.15;97819.01;1732466;83;21018;-79
2022/02/20 08:05:31;;;;;;;23.83;9.35;;;;;;;3.47;55.37;97822.91;1742772;82;21041;-80
2022/02/20 08:07:57;;;;;;;17.15;8.80;;;;;;;3.57;55.46;97823.72;1752575;81;21020;-80
2022/02/20 08:10:24;;;;;;;17.65;8.58;;;;;;;3.71;55.03;97826.30;1752676;82;21060;-80
2022/02/20 08:12:51;;;;;;;16.87;8.78;;;;;;;3.81;54.78;97831.05;1752504;82;21397;-80
2022/02/20 08:15:18;;;;;;;18.35;8.65;;;;;;;3.90;53.89;97823.59;1743236;82;20986;-79
2022/02/20 08:17:47;;;;;;;13.53;7.17;;;;;;;4.03;54.55;97829.18;1732509;82;21010;-80
2022/02/20 08:20:16;;;;;;;15.72;8.05;;;;;;;4.20;54.66;97833.47;1732271;82;21456;-80
2022/02/20 08:22:44;;;;;;;17.30;8.25;;;;;;;4.35;54.16;97828.11;1734055;82;21040;-80
2022/02/20 08:25:12;;;;;;;16.93;7.62;;;;;;;4.50;53.41;97830.19;1752630;82;21000;-80
2022/02/20 08:27:40;;;;;;;15.43;6.72;;;;;;;4.66;54.25;97826.13;1752714;82;20995;-80
2022/02/20 08:30:11;;;;;;;15.88;8.15;;;;;;;4.79;53.55;97820.31;1752716;81;21039;-79
2022/02/20 08:32:38;;;;;;;13.43;7.22;;;;;;;4.89;53.69;97814.09;1751848;81;21019;-80
2022/02/20 08:35:09;;;;;;;12.88;6.65;;;;;;;5.00;53.34;97807.43;1732402;82;21050;-80
2022/02/20 08:37:43;;;;;;;14.05;7.35;;;;;;;5.08;52.84;97800.34;1732595;82;21070;-80
2022/02/20 08:40:12;;;;;;;18.50;7.90;;;;;;;5.16;52.52;97800.27;1732361;82;21014;-80
2022/02/20 08:42:38;;;;;;;15.13;8.35;;;;;;;5.24;51.27;97793.14;1733017;82;20966;-80
2022/02/20 08:45:09;;;;;;;13.20;7.42;;;;;;;5.32;50.69;97785.63;1715648;83;21705;-79
2022/02/20 08:47:35;;;;;;;16.70;7.83;;;;;;;5.40;51.99;97776.76;1732460;83;21007;-79
2022/02/20 08:50:04;;;;;;;14.38;7.35;;;;;;;5.42;51.75;97778.06;1732194;83;21408;-79
2022/02/20 08:52:31;;;;;;;14.73;7.05;;;;;;;5.48;51.62;97785.02;1726947;82;21627;-80
2022/02/20 08:54:58;;;;;;;13.32;7.08;;;;;;;5.53;50.34;97787.14;1736242;82;21032;-79
2022/02/20 08:57:24;;;;;;;15.38;6.97;;;;;;;5.53;49.43;97784.05;1744367;82;21018;-79
2022/02/20 08:59:51;;;;;;;12.78;6.50;;;;;;;5.51;50.55;97771.81;1744462;82;20977;-79
2022/02/20 09:02:17;;;;;;;12.63;7.05;;;;;;;5.43;48.48;97772.38;1744330;82;21107;-79
2022/02/20 09:04:43;;;;;;;17.55;9.48;;;;;;;5.48;50.45;97775.34;1722668;82;21475;-79
2022/02/20 09:07:10;;;;;;;17.67;9.43;;;;;;;5.55;50.91;97784.03;1719654;83;21003;-79
2022/02/20 09:09:36;;;;;;;15.40;8.38;;;;;;;5.57;50.34;97773.50;1719500;83;21038;-79
2022/02/20 09:12:05;;;;;;;12.23;6.78;;;;;;;5.60;49.80;97768.22;1719575;82;21038;-79
2022/02/20 09:14:32;;;;;;;15.93;7.72;;;;;;;5.66;50.44;97774.70;1721300;82;21031;-80
2022/02/20 09:17:00;;;;;;;20.55;7.65;;;;;;;5.74;50.65;97779.85;1719376;83;21010;-80
2022/02/20 09:19:29;;;;;;;16.35;7.95;;;;;;;5.84;51.01;97777.95;1714801;82;21079;-78
2022/02/20 09:21:55;;;;;;;10.82;5.70;;;;;;;5.91;50.51;97772.61;1739320;82;20977;-78
2022/02/20 09:24:23;;;;;;;14.33;6.12;;;;;;;6.01;49.21;97779.91;1739256;82;21017;-77
2022/02/20 09:26:50;;;;;;;14.85;6.53;;;;;;;6.06;49.73;97783.37;1738391;82;21395;-78
2022/02/20 09:29:18;;;;;;;12.23;6.50;;;;;;;6.09;49.35;97785.08;1719240;83;21524;-78
2022/02/20 09:31:45;;;;;;;11.95;6.15;;;;;;;6.10;47.47;97784.65;1719343;83;21377;-78
2022/02/20 09:34:12;;;;;;;11.18;5.33;;;;;;;6.15;48.55;97784.13;1719460;83;21082;-78
2022/02/20 09:36:39;;;;;;;9.00;4.72;;;;;;;6.28;45.90;97787.01;1719588;83;21003;-78
2022/02/20 09:39:06;;;;;;;10.60;4.62;;;;;;;6.40;44.54;97782.43;1721202;82;21419;-78
2022/02/20 09:41:36;;;;;;;8.58;3.50;;;;;;;6.58;47.43;97775.55;1719466;82;21027;-78
2022/02/20 09:44:03;;;;;;;10.58;3.50;;;;;;;6.74;43.26;97768.22;1719568;82;21063;-77
2022/02/20 09:46:30;;;;;;;8.50;4.30;;;;;;;6.96;44.24;97766.97;1719458;83;21042;-77
2022/02/20 09:48:59;;;;;;;9.75;5.03;;;;;;;7.16;43.35;97762.65;1712186;82;21442;-78
2022/02/20 09:51:28;;;;;;;9.63;4.65;;;;;;;7.33;44.25;97757.48;1711456;84;21024;-78
2022/02/20 09:53:56;;;;;;;8.25;3.22;;;;;;;7.51;43.87;97745.23;1723269;83;21016;-79
2022/02/20 09:56:23;;;;;;;7.30;3.47;;;;;;;7.69;43.16;97743.55;1725007;83;20969;-79
2022/02/20 09:58:50;;;;;;;6.90;3.10;;;;;;;7.87;41.83;97750.19;1724792;83;21017;-79
2022/02/20 10:01:17;;;;;;;7.17;2.25;;;;;;;8.05;43.80;97751.09;1725116;83;21457;-79
2022/02/20 10:03:47;;;;;;;4.45;2.20;;;;;;;8.26;37.44;97747.52;1724985;83;21461;-78
2022/02/20 10:06:21;;;;;;;5.15;2.00;;;;;;;8.46;39.87;97736.91;1724295;83;21049;-76
2022/02/20 10:08:51;;;;;;;3.98;2.58;;;;;;;8.64;35.58;97733.44;1723584;83;21466;-78
2022/02/20 10:11:26;;;;;;;4.92;1.85;;;;;;;8.82;35.67;97735.59;1723438;83;21088;-78
2022/02/20 10:14:04;;;;;;;4.00;1.57;;;;;;;9.07;36.90;97734.05;1723465;83;21061;-77
2022/02/20 10:16:32;;;;;;;5.60;2.02;;;;;;;9.32;37.16;97743.49;1722425;83;20981;-78
2022/02/20 10:19:03;;;;;;;4.50;1.60;;;;;;;9.63;37.11;97732.00;1724561;83;20977;-78
2022/02/20 10:21:48;;;;;;;2.30;1.10;;;;;;;9.83;38.06;97731.84;1725088;83;21032;-78
2022/02/20 10:24:33;;;;;;;3.42;1.30;;;;;;;9.99;37.74;97731.37;1724882;83;21009;-77
2022/02/20 10:27:19;;;;;;;3.30;1.00;;;;;;;10.03;35.21;97725.06;1720334;83;21016;-77
2022/02/20 10:30:15;;;;;;;4.60;1.10;;;;;;;10.11;31.76;97728.79;1723430;83;21060;-77
2022/02/20 10:32:43;;;;;;;2.52;0.93;;;;;;;10.06;31.26;97721.01;1706223;83;21040;-77
2022/02/20 10:35:14;;;;;;;2.90;1.10;;;;;;;9.89;28.40;97729.00;1724913;83;21041;-77
2022/02/20 10:37:42;;;;;;;3.10;0.93;;;;;;;9.83;30.64;97720.38;1724122;83;21426;-76
2022/02/20 10:40:28;;;;;;;4.45;1.07;;;;;;;9.86;31.68;97715.01;1719004;83;21522;-77
2022/02/20 10:42:58;;;;;;;2.65;1.00;;;;;;;9.94;32.18;97717.41;1722340;83;21008;-80
2022/02/20 10:45:35;;;;;;;4.25;1.27;;;;;;;9.90;29.76;97701.64;1709771;82;21021;-77
2022/02/20 10:48:05;;;;;;;2.20;0.70;;;;;;;9.83;28.17;97684.20;1720033;83;21016;-81
2022/02/20 10:50:33;;;;;;;2.08;0.75;;;;;;;10.04;29.00;97679.13;1705702;83;20997;-81
2022/02/20 10:53:19;;;;;;;3.47;1.15;;;;;;;10.15;28.20;97670.41;1698088;83;21072;-81
2022/02/20 10:55:51;;;;;;;3.62;1.30;;;;;;;10.05;27.61;97666.30;1685573;83;21013;-81
2022/02/20 10:58:26;;;;;;;2.65;1.05;;;;;;;10.26;29.53;97666.05;1731404;83;20981;-80
2022/02/20 11:00:56;;;;;;;4.20;1.07;;;;;;;10.42;28.31;97657.12;1714250;83;20950;-79
2022/02/20 11:03:26;;;;;;;3.50;1.37;;;;;;;10.49;31.38;97659.14;1719469;82;20966;-80
2022/02/20 11:05:54;;;;;;;8.60;4.15;;;;;;;10.64;30.48;97656.42;1719498;82;21020;-79
2022/02/20 11:08:27;;;;;;;2.40;0.98;;;;;;;10.87;31.41;97658.69;1719436;82;20993;-79
2022/02/20 11:10:55;;;;;;;3.37;1.52;;;;;;;11.41;26.77;97653.17;1719601;83;21005;-78
2022/02/20 11:13:25;;;;;;;4.20;1.35;;;;;;;11.88;29.23;97652.70;1719577;83;21020;-78
2022/02/20 11:15:54;;;;;;;3.95;1.17;;;;;;;12.09;26.61;97644.80;1719422;83;21448;-79
2022/02/20 11:18:24;;;;;;;2.72;1.15;;;;;;;11.98;25.12;97635.91;1719602;82;20985;-79
2022/02/20 11:20:53;;;;;;;2.22;1.00;;;;;;;11.96;25.70;97640.44;1717580;83;20993;-80
2022/02/20 11:23:26;;;;;;;1.67;0.90;;;;;;;11.97;27.73;97636.39;1707714;83;21580;-79
2022/02/20 11:25:59;;;;;;;2.22;1.02;;;;;;;12.37;24.26;97626.38;1714381;83;21018;-80
2022/02/20 11:28:27;;;;;;;4.28;1.27;;;;;;;13.17;26.56;97623.27;1713245;82;20979;-80
2022/02/20 11:30:54;;;;;;;3.08;1.12;;;;;;;13.49;27.09;97619.22;1689975;83;21024;-80
2022/02/20 11:33:22;;;;;;;3.05;1.35;;;;;;;13.96;24.18;97618.70;1708492;83;21084;-79
2022/02/20 11:35:52;;;;;;;3.35;1.07;;;;;;;14.93;27.57;97603.62;1686297;83;21032;-79
2022/02/20 11:38:25;;;;;;;2.80;1.15;;;;;;;15.20;26.39;97601.75;1685625;83;21457;-79
2022/02/20 11:41:02;;;;;;;2.98;1.42;;;;;;;16.02;26.01;97598.52;1685927;83;21032;-79
2022/02/20 11:43:48;;;;;;;1.77;1.00;;;;;;;16.66;22.87;97588.55;1685620;83;21076;-79
2022/02/20 11:46:22;;;;;;;2.92;1.25;;;;;;;17.22;21.62;97592.70;1685271;83;21581;-79
2022/02/20 11:49:16;;;;;;;4.15;1.55;;;;;;;17.39;18.25;97593.44;1704494;82;21096;-79